Time;durP1;ratioP1;P1;durP2;ratioP2;P2;SDS_P1;SDS_P2;PMS_P1;PMS_P2;Temp;Humidity;BMP_temperature;BMP_pressure;BME280_temperature;BME280_humidity;BME280_pressure;Samples;Min_cycle;Max_cycle;Signal;HPM_P1;HPM_P2
2021/05/11 00:01:07;;;;;;;17.73;8.48;;;10.40;99.90;;;;;;5031896;28;20034;-85
2021/05/11 00:03:33;;;;;;;19.17;10.05;;;10.40;99.90;;;;;;5030348;28;20017;-85
2021/05/11 00:05:58;;;;;;;18.73;8.15;;;10.40;99.90;;;;;;5029858;28;20033;-84
2021/05/11 00:08:24;;;;;;;14.18;8.60;;;10.50;99.90;;;;;;5028391;28;20509;-84
2021/05/11 00:10:50;;;;;;;15.65;7.60;;;10.50;99.90;;;;;;5030512;28;20025;-84
2021/05/11 00:13:16;;;;;;;12.85;7.82;;;10.50;99.90;;;;;;5030735;28;20449;-85
2021/05/11 00:15:41;;;;;;;12.95;7.88;;;10.50;99.90;;;;;;5030747;28;20042;-85
2021/05/11 00:18:07;;;;;;;16.48;7.78;;;10.60;99.90;;;;;;5030274;28;20032;-84
2021/05/11 00:20:32;;;;;;;15.30;8.40;;;10.60;99.90;;;;;;5030362;28;20036;-84
2021/05/11 00:22:58;;;;;;;14.88;7.88;;;10.60;99.90;;;;;;5030328;28;20030;-85
2021/05/11 00:25:23;;;;;;;23.85;9.52;;;10.60;99.90;;;;;;5028770;28;20036;-85
2021/05/11 00:27:49;;;;;;;14.82;7.43;;;10.60;99.90;;;;;;5029275;28;20029;-84
2021/05/11 00:30:15;;;;;;;18.60;8.05;;;10.70;99.90;;;;;;5031446;28;20048;-83
2021/05/11 00:32:41;;;;;;;21.17;8.48;;;10.70;99.90;;;;;;5030262;28;20022;-84
2021/05/11 00:35:06;;;;;;;22.02;9.50;;;10.70;99.90;;;;;;5028490;28;20028;-84
2021/05/11 00:37:32;;;;;;;21.75;9.60;;;10.70;99.90;;;;;;5031332;28;20041;-84
2021/05/11 00:39:57;;;;;;;16.90;9.18;;;10.70;99.90;;;;;;5029250;28;20030;-85
2021/05/11 00:42:23;;;;;;;24.20;9.65;;;10.70;99.90;;;;;;5029034;28;20025;-85
2021/05/11 00:44:49;;;;;;;23.65;8.80;;;10.70;99.90;;;;;;5029333;28;20025;-85
2021/05/11 00:47:14;;;;;;;12.27;7.60;;;10.80;99.90;;;;;;5031383;28;20021;-85
2021/05/11 00:49:40;;;;;;;25.10;8.15;;;10.80;99.90;;;;;;5030367;28;20065;-85
2021/05/11 00:52:08;;;;;;;20.17;8.50;;;10.80;99.90;;;;;;5034223;28;20405;-84
2021/05/11 00:54:35;;;;;;;20.17;7.55;;;10.80;99.90;;;;;;5033357;28;20379;-85
2021/05/11 00:57:03;;;;;;;17.48;7.25;;;10.80;99.90;;;;;;5032250;28;20029;-85
2021/05/11 00:59:30;;;;;;;31.52;8.52;;;10.90;99.90;;;;;;5034315;28;20441;-85
2021/05/11 01:01:57;;;;;;;18.17;6.88;;;10.80;99.90;;;;;;5033843;28;20055;-85
2021/05/11 01:04:24;;;;;;;18.98;7.55;;;10.90;99.90;;;;;;5032872;28;20025;-85
2021/05/11 01:06:50;;;;;;;13.20;7.45;;;10.90;99.90;;;;;;5034766;28;20025;-85
2021/05/11 01:09:16;;;;;;;23.42;7.65;;;10.90;99.90;;;;;;5033947;28;20038;-85
2021/05/11 01:11:42;;;;;;;22.38;7.22;;;10.90;99.90;;;;;;5031691;28;20026;-84
2021/05/11 01:14:09;;;;;;;17.45;7.10;;;11.00;99.90;;;;;;5033574;28;20059;-84
2021/05/11 01:16:35;;;;;;;20.38;7.07;;;10.90;99.90;;;;;;5033702;28;20025;-85
2021/05/11 01:19:07;;;;;;;20.23;7.07;;;10.90;99.90;;;;;;5033464;28;20040;-85
2021/05/11 01:24:27;;;;;;;20.23;7.45;;;10.90;99.90;;;;;;5033427;28;20032;-85
2021/05/11 02:10:06;;;;;;;;;;;11.10;99.90;;;;;;5034149;28;20497;-84
2021/05/11 02:23:13;;;;;;;;;;;11.10;99.90;;;;;;5033563;28;20060;-85
2021/05/11 02:25:38;;;;;;;16.75;4.70;;;11.10;99.90;;;;;;5031482;28;20003;-85
2021/05/11 02:28:04;;;;;;;13.15;3.78;;;11.20;99.90;;;;;;5032406;28;20045;-84
2021/05/11 02:30:30;;;;;;;23.95;4.30;;;11.10;99.90;;;;;;5033307;28;20022;-84
2021/05/11 02:32:55;;;;;;;17.02;5.18;;;11.10;99.90;;;;;;5033385;28;20033;-84
2021/05/11 02:35:21;;;;;;;11.32;3.75;;;11.10;99.90;;;;;;5030484;28;20025;-84
2021/05/11 02:37:47;;;;;;;16.98;3.95;;;11.10;99.90;;;;;;5031008;28;20052;-84
2021/05/11 02:40:15;;;;;;;12.00;3.88;;;11.10;99.90;;;;;;5031438;28;20083;-84
2021/05/11 02:42:42;;;;;;;16.13;3.90;;;11.10;99.90;;;;;;5029978;28;20064;-84
2021/05/11 02:45:13;;;;;;;23.58;5.30;;;11.20;99.90;;;;;;5031262;28;20026;-86
2021/05/11 02:47:49;;;;;;;15.63;3.97;;;11.10;99.90;;;;;;5033210;28;20144;-85
2021/05/11 02:50:20;;;;;;;20.73;4.38;;;11.10;99.90;;;;;;5015208;28;20029;-85
2021/05/11 02:52:47;;;;;;;16.25;4.70;;;11.10;99.90;;;;;;5033150;28;20048;-84
2021/05/11 02:55:14;;;;;;;14.65;3.33;;;11.10;99.90;;;;;;5030370;28;20034;-84
2021/05/11 02:57:40;;;;;;;17.20;4.28;;;11.10;99.90;;;;;;5031915;28;20033;-84
2021/05/11 03:00:07;;;;;;;11.27;3.60;;;11.10;99.90;;;;;;5032919;28;20024;-84
2021/05/11 03:02:33;;;;;;;15.75;4.30;;;11.10;99.90;;;;;;5031654;28;20025;-85
2021/05/11 03:04:58;;;;;;;15.90;4.32;;;11.10;99.90;;;;;;5031989;28;20582;-84
2021/05/11 03:07:24;;;;;;;17.67;4.05;;;11.10;99.90;;;;;;5030317;28;20026;-84
2021/05/11 03:09:50;;;;;;;17.60;4.85;;;11.10;99.90;;;;;;5026402;28;20033;-84
2021/05/11 03:12:15;;;;;;;11.68;3.75;;;11.10;99.90;;;;;;5031182;28;20082;-84
2021/05/11 03:14:41;;;;;;;19.15;4.00;;;11.10;99.90;;;;;;5030558;28;20509;-84
2021/05/11 03:17:07;;;;;;;19.58;4.43;;;11.10;99.90;;;;;;5031387;28;20477;-84
2021/05/11 03:19:32;;;;;;;21.55;4.22;;;11.10;99.90;;;;;;5032446;28;20036;-84
2021/05/11 03:21:58;;;;;;;20.05;3.95;;;11.10;99.90;;;;;;5032310;28;20022;-84
2021/05/11 03:24:23;;;;;;;14.10;3.70;;;11.00;99.90;;;;;;5031830;28;20628;-84
2021/05/11 03:26:50;;;;;;;15.05;4.03;;;11.10;99.90;;;;;;5028332;28;20454;-83
2021/05/11 03:29:17;;;;;;;11.43;3.65;;;11.10;99.90;;;;;;5031753;28;20025;-83
2021/05/11 03:31:43;;;;;;;11.75;3.55;;;11.10;99.90;;;;;;5032420;28;20034;-84
2021/05/11 03:34:08;;;;;;;20.60;3.83;;;11.10;99.90;;;;;;5030216;28;20124;-83
2021/05/11 03:36:34;;;;;;;25.25;4.38;;;11.10;99.90;;;;;;5030912;28;20034;-84
2021/05/11 03:39:04;;;;;;;13.85;4.15;;;11.00;99.90;;;;;;5028282;28;20040;-83
2021/05/11 03:41:35;;;;;;;15.32;4.47;;;11.10;99.90;;;;;;5012849;28;20034;-83
2021/05/11 03:44:44;;;;;;;19.63;4.50;;;11.10;99.90;;;;;;5029627;28;20052;-83
2021/05/11 03:46:49;;;;;;;16.65;3.35;;;11.00;99.90;;;;;;5028953;28;20041;-84
2021/05/11 03:49:15;;;;;;;14.77;3.88;;;11.00;99.90;;;;;;5031987;28;20021;-84
2021/05/11 03:51:41;;;;;;;14.00;3.72;;;11.00;99.90;;;;;;5032070;28;20044;-83
2021/05/11 03:54:08;;;;;;;16.33;3.88;;;11.00;99.90;;;;;;5030247;28;20394;-84
2021/05/11 03:56:34;;;;;;;25.35;5.70;;;11.00;99.90;;;;;;5029746;28;20501;-83
2021/05/11 03:59:00;;;;;;;20.05;3.88;;;11.00;99.90;;;;;;5030696;28;20093;-84
2021/05/11 04:01:26;;;;;;;13.00;4.05;;;10.90;99.90;;;;;;5030668;28;20393;-84
2021/05/11 04:03:52;;;;;;;17.83;4.18;;;10.90;99.90;;;;;;5029833;28;20025;-83
2021/05/11 04:06:17;;;;;;;14.50;3.78;;;10.90;99.90;;;;;;5031846;28;20393;-83
2021/05/11 04:08:48;;;;;;;14.25;3.83;;;10.90;99.90;;;;;;5030103;28;20061;-83
2021/05/11 04:16:42;;;;;;;;;;;10.90;99.90;;;;;;5032408;28;20089;-83
2021/05/11 04:19:11;;;;;;;19.60;3.80;;;10.90;99.90;;;;;;5030280;28;19909;-83
2021/05/11 04:21:37;;;;;;;16.23;3.25;;;10.90;99.90;;;;;;5030401;28;20127;-83
2021/05/11 04:24:03;;;;;;;13.02;4.03;;;10.90;99.90;;;;;;5029668;28;20053;-83
2021/05/11 04:26:30;;;;;;;15.88;3.63;;;10.90;99.90;;;;;;5028100;28;20057;-83
2021/05/11 04:28:56;;;;;;;20.42;3.30;;;11.00;99.90;;;;;;5028958;28;20062;-83
2021/05/11 04:31:22;;;;;;;11.57;2.97;;;10.90;99.90;;;;;;5031545;28;20034;-82
2021/05/11 04:33:47;;;;;;;14.90;3.28;;;10.90;99.90;;;;;;5030874;28;20486;-83
2021/05/11 04:36:14;;;;;;;12.35;2.78;;;10.90;99.90;;;;;;5029685;28;20036;-83
2021/05/11 04:38:40;;;;;;;11.27;3.45;;;10.90;99.90;;;;;;5029155;28;20033;-83
2021/05/11 04:41:07;;;;;;;10.13;2.50;;;10.90;99.90;;;;;;5030722;28;20032;-83
2021/05/11 04:43:37;;;;;;;18.67;4.10;;;10.90;99.90;;;;;;5029220;28;20045;-83
2021/05/11 04:46:24;;;;;;;13.50;3.58;;;10.90;99.90;;;;;;5031141;28;20021;-84
2021/05/11 04:48:51;;;;;;;17.98;3.33;;;10.90;99.90;;;;;;5030057;28;20053;-84
2021/05/11 04:51:18;;;;;;;23.60;4.38;;;10.90;99.90;;;;;;5030031;28;20025;-84
2021/05/11 04:53:44;;;;;;;22.23;3.80;;;11.00;99.90;;;;;;5031035;28;20096;-83
2021/05/11 04:56:10;;;;;;;15.35;3.70;;;11.00;99.90;;;;;;5029727;28;20033;-83
2021/05/11 04:58:35;;;;;;;16.63;3.20;;;11.00;99.90;;;;;;5030245;28;20449;-82
2021/05/11 05:01:02;;;;;;;16.40;4.10;;;11.00;99.90;;;;;;5031223;28;20436;-82
2021/05/11 05:03:29;;;;;;;12.45;3.92;;;11.00;99.90;;;;;;5030941;28;20585;-83
2021/05/11 05:05:55;;;;;;;6.60;2.47;;;11.00;99.90;;;;;;5029274;28;20112;-84
2021/05/11 05:08:21;;;;;;;10.82;3.25;;;11.00;99.90;;;;;;5030201;28;20117;-83
2021/05/11 05:10:46;;;;;;;15.80;3.33;;;11.00;99.90;;;;;;5029452;28;20108;-84
2021/05/11 05:13:20;;;;;;;9.27;2.75;;;11.10;99.90;;;;;;5030153;28;20467;-84
2021/05/11 05:15:50;;;;;;;12.15;3.28;;;11.10;99.90;;;;;;5030421;28;20030;-83
2021/05/11 05:18:15;;;;;;;15.32;3.65;;;11.10;99.90;;;;;;5029672;28;20140;-83
2021/05/11 05:20:41;;;;;;;15.77;3.58;;;11.10;99.90;;;;;;5029693;28;20481;-83
2021/05/11 05:23:06;;;;;;;17.55;3.83;;;11.00;99.90;;;;;;5030034;28;20440;-83
2021/05/11 05:25:32;;;;;;;15.52;3.42;;;11.00;99.90;;;;;;5028367;28;20509;-83
2021/05/11 05:28:00;;;;;;;10.55;3.53;;;11.00;99.90;;;;;;5024605;28;20026;-84
2021/05/11 05:30:26;;;;;;;16.02;3.92;;;11.00;99.90;;;;;;5031843;28;20087;-84
2021/05/11 05:32:57;;;;;;;17.02;4.00;;;11.00;99.90;;;;;;5030834;28;20486;-84
2021/05/11 05:35:23;;;;;;;11.43;2.88;;;11.00;99.90;;;;;;5030539;28;20028;-84
2021/05/11 05:37:48;;;;;;;10.82;4.13;;;11.00;99.90;;;;;;5031848;28;20026;-84
2021/05/11 05:40:18;;;;;;;10.68;2.50;;;11.00;99.90;;;;;;5032379;28;20026;-84
2021/05/11 05:42:45;;;;;;;12.77;3.10;;;11.00;99.90;;;;;;5033022;28;20017;-85
2021/05/11 05:45:11;;;;;;;11.93;3.22;;;11.10;99.90;;;;;;5033705;28;20018;-85
2021/05/11 05:47:37;;;;;;;14.35;4.22;;;11.10;99.90;;;;;;5033052;28;20029;-85
2021/05/11 05:50:07;;;;;;;7.68;3.08;;;11.10;99.90;;;;;;5034340;28;20026;-85
2021/05/11 05:52:38;;;;;;;15.60;3.53;;;11.10;99.90;;;;;;5033261;28;20025;-84
2021/05/11 05:55:04;;;;;;;12.27;2.92;;;11.10;99.90;;;;;;5032248;28;20083;-84
2021/05/11 05:57:30;;;;;;;10.77;3.13;;;11.10;99.90;;;;;;5032365;28;20121;-84
2021/05/11 05:59:56;;;;;;;17.17;4.25;;;11.10;99.90;;;;;;5033999;28;20100;-83
2021/05/11 06:02:23;;;;;;;12.07;3.50;;;11.10;99.90;;;;;;5032060;28;20485;-84
2021/05/11 06:04:48;;;;;;;15.73;3.80;;;11.10;99.90;;;;;;5033033;28;20020;-84
2021/05/11 06:07:15;;;;;;;10.27;3.72;;;11.10;99.90;;;;;;5032685;28;20025;-83
2021/05/11 06:09:41;;;;;;;13.10;3.45;;;11.00;99.90;;;;;;5034013;28;20021;-87
2021/05/11 06:12:34;;;;;;;21.25;4.88;;;11.10;99.90;;;;;;5031231;28;20385;-83
2021/05/11 06:17:39;;;;;;;21.65;4.82;;;11.00;99.90;;;;;;5033595;28;20083;-83
2021/05/11 06:20:06;;;;;;;13.80;3.63;;;11.10;99.90;;;;;;5033491;28;20033;-84
2021/05/11 06:22:31;;;;;;;15.82;5.03;;;11.10;99.90;;;;;;5033695;28;20470;-88
2021/05/11 06:24:57;;;;;;;13.60;4.50;;;11.20;99.90;;;;;;5032006;28;20025;-83
2021/05/11 06:27:23;;;;;;;11.25;3.38;;;11.20;99.90;;;;;;5029238;28;20466;-83
2021/05/11 06:29:55;;;;;;;11.20;3.33;;;11.30;99.90;;;;;;5032132;28;20022;-83
2021/05/11 06:32:20;;;;;;;17.23;4.57;;;11.40;99.90;;;;;;5032398;28;20082;-86
2021/05/11 06:34:53;;;;;;;17.75;4.25;;;11.40;99.90;;;;;;5032675;28;20017;-83
2021/05/11 06:37:18;;;;;;;19.23;3.85;;;11.40;99.90;;;;;;5023822;28;20025;-84
2021/05/11 06:39:46;;;;;;;15.50;3.85;;;11.50;99.90;;;;;;5033193;28;20037;-84
2021/05/11 06:42:12;;;;;;;13.75;4.18;;;11.50;99.90;;;;;;5029533;28;20425;-84
2021/05/11 06:50:11;;;;;;;11.38;3.25;;;11.60;99.90;;;;;;5033163;28;20033;-83
2021/05/11 06:55:02;;;;;;;11.57;3.35;;;11.60;99.90;;;;;;5031802;28;20130;-84
2021/05/11 06:57:28;;;;;;;13.88;4.00;;;11.60;99.90;;;;;;5031113;28;20025;-84
2021/05/11 06:59:53;;;;;;;8.02;3.80;;;11.60;99.90;;;;;;5031529;28;20109;-84
2021/05/11 07:02:19;;;;;;;19.52;4.40;;;11.60;99.90;;;;;;5031656;28;20023;-84
2021/05/11 07:04:49;;;;;;;11.25;4.75;;;11.60;99.90;;;;;;5032090;28;20029;-82
2021/05/11 07:07:15;;;;;;;13.45;4.78;;;11.50;99.90;;;;;;5016078;28;20028;-84
2021/05/11 07:14:58;;;;;;;13.32;3.42;;;11.60;99.90;;;;;;5021728;28;20075;-83
2021/05/11 07:17:24;;;;;;;10.70;3.53;;;11.70;99.90;;;;;;5032752;28;20068;-83
2021/05/11 07:19:51;;;;;;;12.70;3.70;;;11.70;99.90;;;;;;5030992;28;20551;-83
2021/05/11 07:22:17;;;;;;;10.15;4.20;;;11.80;99.90;;;;;;5032722;28;20024;-84
2021/05/11 07:24:44;;;;;;;14.93;2.92;;;11.80;99.90;;;;;;5029607;28;20022;-85
2021/05/11 07:32:01;;;;;;;13.93;3.05;;;11.80;99.90;;;;;;5032936;28;20500;-84
2021/05/11 07:34:28;;;;;;;7.68;3.10;;;11.90;99.90;;;;;;5030625;28;20449;-83
2021/05/11 07:36:54;;;;;;;9.70;2.72;;;11.90;99.90;;;;;;5030668;28;20418;-85
2021/05/11 07:39:22;;;;;;;9.98;3.40;;;11.80;99.90;;;;;;5031668;28;20079;-82
2021/05/11 07:41:47;;;;;;;8.13;3.22;;;11.80;99.90;;;;;;5029073;28;20025;-86
2021/05/11 07:44:13;;;;;;;12.13;3.65;;;11.80;99.90;;;;;;5029627;28;20461;-87
2021/05/11 08:16:03;;;;;;;9.55;3.03;;;11.90;99.90;;;;;;5031241;28;20048;-84
2021/05/11 08:19:10;;;;;;;13.45;3.47;;;12.00;99.90;;;;;;5031522;28;20017;-82
2021/05/11 08:29:00;;;;;;;9.60;3.10;;;12.50;99.90;;;;;;5030884;28;20075;-81
2021/05/11 08:31:25;;;;;;;12.65;2.78;;;12.80;99.90;;;;;;5085865;22;20045;-83
2021/05/11 08:33:51;;;;;;;9.70;2.40;;;12.80;99.90;;;;;;5020498;28;20393;-83
2021/05/11 08:36:16;;;;;;;9.73;2.75;;;12.80;99.90;;;;;;5039242;28;20025;-84
2021/05/11 08:38:42;;;;;;;14.25;2.90;;;12.80;99.90;;;;;;5022958;28;20048;-83
2021/05/11 08:41:07;;;;;;;9.68;2.70;;;12.80;99.90;;;;;;5010360;28;20030;-85
2021/05/11 08:43:37;;;;;;;13.38;2.90;;;13.00;99.90;;;;;;5013937;28;20033;-84
2021/05/11 08:46:07;;;;;;;9.43;2.88;;;13.10;99.90;;;;;;5016878;28;20457;-85
2021/05/11 08:48:34;;;;;;;9.82;2.25;;;13.20;99.90;;;;;;5005518;28;20401;-82
2021/05/11 08:53:48;;;;;;;8.85;2.97;;;13.50;99.90;;;;;;5016171;28;20060;-84
2021/05/11 09:05:00;;;;;;;5.00;1.90;;;13.70;99.90;;;;;;5025785;28;20025;-84
2021/05/11 09:33:22;;;;;;;6.38;2.25;;;13.50;99.90;;;;;;4967352;28;20613;-86
2021/05/11 09:58:51;;;;;;;11.52;1.50;;;13.00;99.90;;;;;;5019628;28;20040;-85
2021/05/11 10:10:46;;;;;;;8.13;2.47;;;13.10;99.90;;;;;;5024904;28;20394;-85
2021/05/11 10:48:36;;;;;;;14.00;1.98;;;12.80;99.90;;;;;;5026240;28;20052;-84
2021/05/11 10:51:23;;;;;;;7.68;2.00;;;12.90;99.90;;;;;;5010378;28;20530;-83
2021/05/11 10:54:00;;;;;;;5.43;1.55;;;12.90;99.90;;;;;;5029066;28;20044;-83
2021/05/11 10:56:33;;;;;;;6.78;1.60;;;13.00;99.90;;;;;;5016214;28;20034;-83
2021/05/11 11:02:04;;;;;;;6.28;1.77;;;13.00;99.90;;;;;;5015348;28;20610;-84
2021/05/11 11:04:43;;;;;;;5.95;1.40;;;13.10;99.90;;;;;;5022691;28;20031;-84
2021/05/11 11:07:09;;;;;;;9.65;2.45;;;13.40;99.90;;;;;;5022849;28;20022;-83
2021/05/11 11:09:36;;;;;;;3.55;1.50;;;13.40;99.90;;;;;;5023969;28;20441;-84
2021/05/11 11:12:06;;;;;;;6.22;1.60;;;13.50;99.90;;;;;;5024993;28;20029;-83
2021/05/11 11:14:42;;;;;;;5.03;1.25;;;13.60;99.90;;;;;;4995620;28;20490;-82
2021/05/11 11:17:10;;;;;;;7.68;1.77;;;13.80;99.90;;;;;;4992951;28;20038;-83
2021/05/11 11:19:37;;;;;;;7.35;1.95;;;13.80;99.90;;;;;;5023369;28;20029;-82
2021/05/11 11:24:55;;;;;;;5.80;1.52;;;13.80;99.90;;;;;;5015913;28;20040;-83
2021/05/11 11:27:28;;;;;;;5.47;1.60;;;13.70;99.90;;;;;;5024242;28;20130;-84
2021/05/11 11:30:03;;;;;;;8.13;2.07;;;13.70;99.90;;;;;;4999127;28;20025;-83
2021/05/11 11:32:29;;;;;;;6.38;1.83;;;13.90;99.90;;;;;;5028424;28;20393;-83
2021/05/11 11:34:59;;;;;;;6.78;1.80;;;13.90;99.90;;;;;;5014567;28;20075;-83
2021/05/11 11:37:26;;;;;;;8.85;2.05;;;13.90;99.90;;;;;;5021589;28;20067;-83
2021/05/11 11:39:53;;;;;;;8.50;2.08;;;13.80;99.90;;;;;;5019577;28;20071;-83
2021/05/11 11:42:20;;;;;;;9.23;1.67;;;13.80;99.90;;;;;;5008880;28;20533;-84
2021/05/11 11:44:47;;;;;;;8.38;2.20;;;13.70;99.90;;;;;;5022511;28;20099;-83
2021/05/11 11:47:13;;;;;;;7.63;1.70;;;13.80;99.90;;;;;;5026857;28;20398;-84
2021/05/11 11:49:44;;;;;;;8.20;1.60;;;14.00;99.90;;;;;;5025349;28;20037;-83
2021/05/11 12:00:03;;;;;;;4.70;1.52;;;14.40;99.90;;;;;;5021611;28;20160;-83
2021/05/11 12:02:28;;;;;;;4.88;1.67;;;14.50;99.90;;;;;;5027965;28;20026;-83
2021/05/11 12:04:55;;;;;;;4.88;1.75;;;14.60;99.90;;;;;;5026493;28;20021;-83
2021/05/11 12:07:22;;;;;;;5.95;1.55;;;14.80;99.90;;;;;;5002664;28;20118;-83
2021/05/11 12:09:48;;;;;;;4.80;1.83;;;15.00;99.90;;;;;;5022002;28;20022;-83
2021/05/11 12:12:15;;;;;;;6.32;1.60;;;15.40;99.90;;;;;;5013813;28;20045;-84
2021/05/11 12:14:41;;;;;;;6.75;1.75;;;15.60;99.90;;;;;;5019631;28;20120;-84
2021/05/11 12:17:06;;;;;;;6.40;1.80;;;15.60;99.90;;;;;;5023726;28;20561;-84
2021/05/11 12:19:32;;;;;;;5.85;2.25;;;16.10;99.90;;;;;;5027524;28;20120;-83
2021/05/11 12:22:05;;;;;;;8.88;1.85;;;16.30;99.90;;;;;;4997306;28;20107;-83
2021/05/11 12:24:40;;;;;;;7.38;1.83;;;16.50;99.90;;;;;;5011544;28;20025;-83
2021/05/11 12:27:10;;;;;;;3.00;1.40;;;16.60;99.90;;;;;;5007938;28;20033;-84
2021/05/11 12:29:35;;;;;;;12.63;1.67;;;16.80;99.90;;;;;;4993348;28;20401;-84
2021/05/11 12:32:01;;;;;;;9.57;2.47;;;16.80;99.90;;;;;;4993683;28;20033;-83
2021/05/11 12:34:27;;;;;;;7.13;1.58;;;16.60;99.90;;;;;;5011090;28;20033;-81
2021/05/11 12:37:00;;;;;;;5.53;1.77;;;16.70;99.90;;;;;;5010172;28;20125;-81
2021/05/11 12:42:21;;;;;;;5.30;1.50;;;16.70;99.90;;;;;;5011831;28;20355;-82
2021/05/11 12:45:04;;;;;;;3.20;1.67;;;16.50;99.90;;;;;;4989554;28;20149;-82
2021/05/11 12:47:43;;;;;;;8.77;1.65;;;16.50;99.90;;;;;;5004599;28;20089;-81
2021/05/11 12:50:19;;;;;;;4.47;1.25;;;16.20;99.90;;;;;;5014234;28;20021;-81
2021/05/11 12:52:47;;;;;;;4.60;1.60;;;16.00;99.90;;;;;;4997885;28;20026;-81
2021/05/11 12:55:32;;;;;;;6.40;1.50;;;15.90;99.90;;;;;;5014899;28;20014;-81
2021/05/11 12:58:10;;;;;;;5.10;1.58;;;15.80;99.90;;;;;;5013347;28;20537;-79
2021/05/11 13:00:44;;;;;;;5.50;1.60;;;15.80;99.90;;;;;;5011311;28;20017;-79
2021/05/11 13:03:32;;;;;;;7.40;1.67;;;15.70;99.90;;;;;;5024070;28;20513;-79
2021/05/11 13:22:16;;;;;;;5.82;1.60;;;14.80;99.90;;;;;;5014915;28;20084;-82
2021/05/11 13:27:30;;;;;;;4.60;1.42;;;14.40;99.90;;;;;;4999178;28;20045;-81
2021/05/11 13:30:06;;;;;;;7.78;1.70;;;14.30;99.90;;;;;;5020053;28;20018;-81
2021/05/11 13:35:00;;;;;;;8.93;1.52;;;14.30;99.90;;;;;;5023964;28;20045;-82
2021/05/11 13:37:28;;;;;;;5.25;1.45;;;14.30;99.90;;;;;;5023096;28;20029;-82
2021/05/11 13:39:55;;;;;;;4.65;1.50;;;14.40;99.90;;;;;;5003413;28;20018;-82
2021/05/11 13:42:21;;;;;;;4.88;1.50;;;14.30;99.90;;;;;;5024295;28;20018;-82
2021/05/11 13:44:48;;;;;;;4.78;1.40;;;14.20;99.90;;;;;;5023678;28;20117;-81
2021/05/11 13:47:14;;;;;;;14.52;2.42;;;14.30;99.90;;;;;;5006651;28;20034;-82
2021/05/11 13:49:40;;;;;;;2.75;1.08;;;14.20;99.90;;;;;;5027828;28;20095;-82
2021/05/11 13:52:05;;;;;;;6.60;1.70;;;14.20;99.90;;;;;;5023202;28;20508;-82
2021/05/11 13:54:31;;;;;;;9.43;1.70;;;14.10;99.90;;;;;;5025951;28;20025;-81
2021/05/11 14:04:50;;;;;;;11.63;1.80;;;14.10;99.90;;;;;;5028938;28;19935;-82
2021/05/11 14:07:15;;;;;;;6.72;1.70;;;14.20;99.90;;;;;;5027926;28;20026;-81
2021/05/11 14:09:41;;;;;;;4.63;1.40;;;14.30;99.90;;;;;;5027721;28;20021;-81
2021/05/11 14:12:06;;;;;;;8.15;1.70;;;14.40;99.90;;;;;;5010494;28;20034;-83
2021/05/11 14:14:32;;;;;;;4.03;1.50;;;14.40;99.90;;;;;;5009386;28;20083;-82
2021/05/11 14:16:58;;;;;;;11.05;1.65;;;14.40;99.90;;;;;;5027403;28;20087;-82
2021/05/11 14:19:25;;;;;;;5.80;1.45;;;14.10;99.90;;;;;;5010923;28;20044;-84
2021/05/11 14:21:50;;;;;;;7.10;2.08;;;14.00;99.90;;;;;;5019117;28;20410;-84
2021/05/11 14:24:16;;;;;;;11.82;1.52;;;13.90;99.90;;;;;;5026784;28;20098;-84
2021/05/11 14:26:42;;;;;;;2.65;1.27;;;13.80;99.90;;;;;;5010538;28;20048;-83
2021/05/11 14:29:08;;;;;;;6.03;1.55;;;13.80;99.90;;;;;;5028609;28;20375;-83
2021/05/11 14:31:34;;;;;;;9.57;3.30;;;13.70;99.90;;;;;;5002594;28;20060;-84
2021/05/11 14:34:00;;;;;;;8.98;1.42;;;13.80;99.90;;;;;;5004737;28;20049;-85
2021/05/11 14:36:25;;;;;;;13.60;2.70;;;13.70;99.90;;;;;;4995093;28;20032;-85
2021/05/11 14:38:51;;;;;;;7.75;2.35;;;13.70;99.90;;;;;;5025963;28;20025;-85
2021/05/11 14:41:17;;;;;;;12.63;3.40;;;13.60;99.90;;;;;;5008572;28;20018;-85
2021/05/11 14:43:43;;;;;;;6.93;3.33;;;13.60;99.90;;;;;;4976598;28;20051;-85
2021/05/11 14:46:11;;;;;;;21.98;3.20;;;13.60;99.90;;;;;;4948260;28;20031;-85
2021/05/11 14:48:37;;;;;;;8.43;1.60;;;13.60;99.90;;;;;;4947664;28;20038;-84
2021/05/11 14:51:05;;;;;;;6.75;1.58;;;13.60;99.90;;;;;;4949470;28;20091;-85
2021/05/11 14:53:31;;;;;;;5.18;1.77;;;13.50;99.90;;;;;;4948414;29;20089;-83
2021/05/11 14:55:57;;;;;;;3.85;1.70;;;13.40;99.90;;;;;;4947887;29;20122;-83
2021/05/11 14:58:23;;;;;;;7.00;2.30;;;13.30;99.90;;;;;;4948988;29;21422;-82
2021/05/11 15:00:49;;;;;;;6.85;1.70;;;13.30;99.90;;;;;;4948557;29;20730;-83
2021/05/11 15:03:14;;;;;;;5.68;1.60;;;13.30;99.90;;;;;;4948351;29;20031;-82
2021/05/11 15:05:41;;;;;;;5.80;2.15;;;13.30;99.90;;;;;;4948908;29;20038;-83
2021/05/11 15:08:08;;;;;;;5.88;1.40;;;13.10;99.90;;;;;;4949048;28;20035;-84
2021/05/11 15:10:34;;;;;;;9.60;1.90;;;13.00;99.90;;;;;;4948644;29;20381;-82
2021/05/11 15:13:00;;;;;;;11.85;2.28;;;13.00;99.90;;;;;;4950184;28;20046;-83
2021/05/11 15:15:26;;;;;;;9.27;1.85;;;13.00;99.90;;;;;;4951148;29;20023;-82
2021/05/11 15:20:20;;;;;;;9.05;2.00;;;13.00;99.90;;;;;;4954130;29;20027;-83
2021/05/11 15:22:51;;;;;;;8.20;2.10;;;13.10;99.90;;;;;;4953263;29;20480;-83
2021/05/11 15:25:18;;;;;;;6.05;1.85;;;13.10;99.90;;;;;;4953644;29;20565;-83
2021/05/11 15:27:43;;;;;;;2.53;1.55;;;13.00;99.90;;;;;;4954361;28;20023;-83
2021/05/11 15:30:09;;;;;;;9.07;2.10;;;13.00;99.90;;;;;;4954431;29;20384;-83
2021/05/11 15:32:43;;;;;;;8.65;1.88;;;13.00;99.90;;;;;;4952933;29;20396;-83
2021/05/11 15:35:15;;;;;;;5.72;1.90;;;13.10;99.90;;;;;;4953237;28;20077;-83
2021/05/11 15:37:41;;;;;;;8.98;1.80;;;13.00;99.90;;;;;;4949853;29;20027;-82
2021/05/11 15:40:18;;;;;;;10.40;2.17;;;13.00;99.90;;;;;;4953937;28;20035;-82
2021/05/11 15:42:43;;;;;;;10.32;2.63;;;13.10;99.90;;;;;;4943462;29;20103;-82
2021/05/11 15:45:10;;;;;;;5.43;2.15;;;13.10;99.90;;;;;;4947386;29;20134;-81
2021/05/11 15:47:51;;;;;;;26.17;9.45;;;13.20;99.90;;;;;;4964327;28;20019;-82
2021/05/11 15:50:18;;;;;;;17.55;4.85;;;13.20;99.90;;;;;;4948699;28;20081;-82
2021/05/11 15:52:43;;;;;;;6.28;2.45;;;13.30;99.90;;;;;;4948622;28;20038;-80
2021/05/11 15:55:09;;;;;;;14.43;2.05;;;13.30;99.90;;;;;;4948749;29;20031;-82
2021/05/11 15:57:35;;;;;;;7.97;2.35;;;13.40;99.90;;;;;;4948934;28;20039;-82
2021/05/11 16:00:00;;;;;;;7.63;2.40;;;13.30;99.90;;;;;;4949427;29;20023;-81
2021/05/11 16:02:26;;;;;;;4.13;1.75;;;13.30;99.90;;;;;;4952994;29;20481;-82
2021/05/11 16:04:51;;;;;;;8.57;2.17;;;13.20;99.90;;;;;;4953195;28;20519;-82
2021/05/11 16:07:17;;;;;;;12.68;2.30;;;13.30;99.90;;;;;;4953740;28;20034;-81
2021/05/11 16:09:42;;;;;;;6.15;2.00;;;13.30;99.90;;;;;;4968674;28;20038;-80
2021/05/11 16:12:09;;;;;;;8.40;2.20;;;13.30;99.90;;;;;;4952249;28;20027;-81
2021/05/11 16:14:34;;;;;;;5.15;1.52;;;13.30;99.90;;;;;;4953213;29;20031;-81
2021/05/11 16:17:00;;;;;;;5.65;2.60;;;13.30;99.90;;;;;;4952247;29;20027;-81
2021/05/11 16:19:28;;;;;;;15.35;2.88;;;13.30;99.90;;;;;;4952320;29;20447;-82
2021/05/11 16:21:54;;;;;;;9.18;1.88;;;13.20;99.90;;;;;;4951223;28;20074;-80
2021/05/11 16:24:19;;;;;;;9.13;1.85;;;13.10;99.90;;;;;;4951390;29;20031;-81
2021/05/11 16:26:45;;;;;;;9.95;2.60;;;13.10;99.90;;;;;;4952347;29;20078;-81
2021/05/11 16:29:10;;;;;;;5.78;1.42;;;13.00;99.90;;;;;;4968191;28;20078;-81
2021/05/11 16:31:36;;;;;;;7.55;2.17;;;13.00;99.90;;;;;;4948497;28;20445;-80
2021/05/11 16:34:03;;;;;;;7.65;1.90;;;12.90;99.90;;;;;;4948918;29;20038;-80
2021/05/11 16:36:29;;;;;;;7.72;1.63;;;12.90;99.90;;;;;;4944812;29;20030;-80
2021/05/11 16:38:54;;;;;;;7.88;1.90;;;12.90;99.90;;;;;;4953415;28;20396;-81
2021/05/11 16:41:20;;;;;;;8.25;1.73;;;12.90;99.90;;;;;;4946987;29;20681;-83
2021/05/11 16:43:45;;;;;;;11.23;2.03;;;12.80;99.90;;;;;;4946731;29;20015;-83
2021/05/11 16:46:13;;;;;;;4.20;1.50;;;12.80;99.90;;;;;;4948423;29;20027;-83
2021/05/11 16:48:38;;;;;;;6.00;1.50;;;12.80;99.90;;;;;;4947282;29;20865;-83
2021/05/11 16:51:04;;;;;;;9.57;2.03;;;12.80;99.90;;;;;;4948115;29;20031;-84
2021/05/11 16:53:30;;;;;;;7.40;1.90;;;12.80;99.90;;;;;;4946957;29;20778;-83
2021/05/11 16:55:56;;;;;;;12.60;3.40;;;12.70;99.90;;;;;;4950236;29;20035;-89
2021/05/11 16:58:22;;;;;;;8.82;2.03;;;12.60;99.90;;;;;;4953618;29;20068;-88
2021/05/11 17:00:48;;;;;;;9.45;2.08;;;12.60;99.90;;;;;;4951838;29;20066;-88
2021/05/11 17:03:15;;;;;;;9.43;2.38;;;12.60;99.90;;;;;;4952161;28;20062;-87
2021/05/11 17:05:41;;;;;;;12.27;2.40;;;12.50;99.90;;;;;;4951456;29;20023;-85
2021/05/11 17:08:07;;;;;;;6.57;1.90;;;12.60;99.90;;;;;;4953118;29;20480;-84
2021/05/11 17:10:35;;;;;;;9.98;2.53;;;12.60;99.90;;;;;;4953111;29;20027;-88
2021/05/11 17:13:03;;;;;;;12.10;2.28;;;12.50;99.90;;;;;;4948229;29;20032;-84
2021/05/11 17:15:30;;;;;;;4.57;2.17;;;12.50;99.90;;;;;;4947964;29;20485;-88
2021/05/11 17:17:56;;;;;;;9.38;2.33;;;12.60;99.90;;;;;;4948912;28;20028;-88